sensor_id;sensor_type;location;lat;lon;timestamp;pressure;altitude;pressure_sealevel;temperature;humidity
80308;BME280;69616;43.522;1.348;2024-02-26T00:01:58;98301.00;;;8.11;90.44
80308;BME280;69616;43.522;1.348;2024-02-26T00:04:23;98296.59;;;8.11;89.87
80308;BME280;69616;43.522;1.348;2024-02-26T00:06:49;98294.03;;;8.10;89.95
80308;BME280;69616;43.522;1.348;2024-02-26T00:09:16;98302.81;;;8.07;89.97
80308;BME280;69616;43.522;1.348;2024-02-26T00:11:42;98299.31;;;8.07;89.61
80308;BME280;69616;43.522;1.348;2024-02-26T00:14:07;98288.78;;;8.10;89.60
80308;BME280;69616;43.522;1.348;2024-02-26T00:16:32;98284.50;;;8.05;89.85
80308;BME280;69616;43.522;1.348;2024-02-26T00:18:58;98278.41;;;8.05;89.71
80308;BME280;69616;43.522;1.348;2024-02-26T00:21:23;98278.50;;;8.02;90.07
80308;BME280;69616;43.522;1.348;2024-02-26T00:23:49;98278.53;;;8.00;89.97
80308;BME280;69616;43.522;1.348;2024-02-26T00:26:18;98271.66;;;7.96;89.57
80308;BME280;69616;43.522;1.348;2024-02-26T00:28:43;98263.81;;;7.95;90.07
80308;BME280;69616;43.522;1.348;2024-02-26T00:31:09;98259.47;;;7.94;89.52
80308;BME280;69616;43.522;1.348;2024-02-26T00:33:34;98261.25;;;7.93;89.74
80308;BME280;69616;43.522;1.348;2024-02-26T00:35:59;98254.28;;;7.92;89.59
80308;BME280;69616;43.522;1.348;2024-02-26T00:38:25;98252.59;;;7.89;89.66
80308;BME280;69616;43.522;1.348;2024-02-26T00:40:50;98241.25;;;7.89;89.50
80308;BME280;69616;43.522;1.348;2024-02-26T00:43:16;98233.41;;;7.89;89.68
80308;BME280;69616;43.522;1.348;2024-02-26T00:45:41;98227.28;;;7.88;90.50
80308;BME280;69616;43.522;1.348;2024-02-26T00:48:07;98226.38;;;7.89;90.15
80308;BME280;69616;43.522;1.348;2024-02-26T00:50:33;98227.19;;;7.92;89.93
80308;BME280;69616;43.522;1.348;2024-02-26T00:52:59;98240.22;;;7.95;89.57
80308;BME280;69616;43.522;1.348;2024-02-26T00:55:24;98241.06;;;7.97;89.62
80308;BME280;69616;43.522;1.348;2024-02-26T00:57:50;98240.19;;;7.96;89.32
80308;BME280;69616;43.522;1.348;2024-02-26T01:00:16;98238.44;;;7.97;89.48
80308;BME280;69616;43.522;1.348;2024-02-26T01:02:41;98234.94;;;7.96;89.57
80308;BME280;69616;43.522;1.348;2024-02-26T01:05:07;98228.03;;;7.94;89.68
80308;BME280;69616;43.522;1.348;2024-02-26T01:07:34;98236.75;;;7.94;89.75
80308;BME280;69616;43.522;1.348;2024-02-26T01:10:03;98232.44;;;7.92;90.42
80308;BME280;69616;43.522;1.348;2024-02-26T01:12:31;98235.84;;;7.95;90.10
80308;BME280;69616;43.522;1.348;2024-02-26T01:14:56;98229.78;;;7.93;89.57
80308;BME280;69616;43.522;1.348;2024-02-26T01:17:22;98226.28;;;7.94;90.09
80308;BME280;69616;43.522;1.348;2024-02-26T01:19:47;98217.53;;;7.94;89.56
80308;BME280;69616;43.522;1.348;2024-02-26T01:22:12;98221.94;;;7.93;89.41
80308;BME280;69616;43.522;1.348;2024-02-26T01:24:41;98216.69;;;7.93;89.68
80308;BME280;69616;43.522;1.348;2024-02-26T01:27:06;98215.88;;;7.91;89.35
80308;BME280;69616;43.522;1.348;2024-02-26T01:29:34;98213.25;;;7.91;89.39
80308;BME280;69616;43.522;1.348;2024-02-26T01:31:59;98217.69;;;7.89;89.26
80308;BME280;69616;43.522;1.348;2024-02-26T01:34:24;98215.13;;;7.86;89.23
80308;BME280;69616;43.522;1.348;2024-02-26T01:36:50;98211.72;;;7.84;89.21
80308;BME280;69616;43.522;1.348;2024-02-26T01:39:15;98214.38;;;7.81;89.25
80308;BME280;69616;43.522;1.348;2024-02-26T01:41:41;98213.56;;;7.79;88.81
80308;BME280;69616;43.522;1.348;2024-02-26T01:44:06;98217.97;;;7.76;89.31
80308;BME280;69616;43.522;1.348;2024-02-26T01:46:33;98214.53;;;7.74;89.15
80308;BME280;69616;43.522;1.348;2024-02-26T01:49:01;98219.88;;;7.71;88.87
80308;BME280;69616;43.522;1.348;2024-02-26T01:51:27;98221.66;;;7.69;88.70
80308;BME280;69616;43.522;1.348;2024-02-26T01:53:53;98214.78;;;7.65;88.97
80308;BME280;69616;43.522;1.348;2024-02-26T01:56:19;98208.75;;;7.61;88.64
80308;BME280;69616;43.522;1.348;2024-02-26T01:58:45;98213.19;;;7.58;88.51
80308;BME280;69616;43.522;1.348;2024-02-26T02:01:12;98208.09;;;7.53;88.50
80308;BME280;69616;43.522;1.348;2024-02-26T02:03:39;98208.13;;;7.52;88.80
80308;BME280;69616;43.522;1.348;2024-02-26T02:06:07;98200.34;;;7.49;89.07
80308;BME280;69616;43.522;1.348;2024-02-26T02:08:33;98203.88;;;7.47;88.53
80308;BME280;69616;43.522;1.348;2024-02-26T02:11:00;98210.97;;;7.42;88.80
80308;BME280;69616;43.522;1.348;2024-02-26T02:13:25;98208.44;;;7.39;88.66
80308;BME280;69616;43.522;1.348;2024-02-26T02:15:51;98212.88;;;7.36;88.53
80308;BME280;69616;43.522;1.348;2024-02-26T02:18:17;98212.06;;;7.33;88.48
80308;BME280;69616;43.522;1.348;2024-02-26T02:20:43;98215.59;;;7.31;88.83
80308;BME280;69616;43.522;1.348;2024-02-26T02:23:08;98206.09;;;7.28;88.63
80308;BME280;69616;43.522;1.348;2024-02-26T02:25:33;98207.94;;;7.23;88.72
80308;BME280;69616;43.522;1.348;2024-02-26T02:27:59;98202.78;;;7.20;88.15
80308;BME280;69616;43.522;1.348;2024-02-26T02:30:27;98192.38;;;7.17;88.30
80308;BME280;69616;43.522;1.348;2024-02-26T02:32:53;98182.06;;;7.11;87.94
80308;BME280;69616;43.522;1.348;2024-02-26T02:35:18;98176.91;;;7.08;88.32
80308;BME280;69616;43.522;1.348;2024-02-26T02:37:44;98172.50;;;7.08;88.65
80308;BME280;69616;43.522;1.348;2024-02-26T02:40:09;98184.78;;;7.06;88.22
80308;BME280;69616;43.522;1.348;2024-02-26T02:42:35;98177.91;;;7.02;88.48
80308;BME280;69616;43.522;1.348;2024-02-26T02:45:00;98177.06;;;7.01;88.48
80308;BME280;69616;43.522;1.348;2024-02-26T02:47:26;98174.47;;;6.98;88.62
80308;BME280;69616;43.522;1.348;2024-02-26T02:49:51;98181.56;;;6.95;88.45
80308;BME280;69616;43.522;1.348;2024-02-26T02:52:16;98179.84;;;6.94;88.57
80308;BME280;69616;43.522;1.348;2024-02-26T02:54:42;98182.47;;;6.92;88.23
80308;BME280;69616;43.522;1.348;2024-02-26T02:57:08;98181.72;;;6.88;88.08
80308;BME280;69616;43.522;1.348;2024-02-26T02:59:34;98172.25;;;6.83;88.36
80308;BME280;69616;43.522;1.348;2024-02-26T03:01:59;98181.00;;;6.80;87.73
80308;BME280;69616;43.522;1.348;2024-02-26T03:04:24;98185.41;;;6.78;87.74
80308;BME280;69616;43.522;1.348;2024-02-26T03:06:50;98186.31;;;6.77;88.06
80308;BME280;69616;43.522;1.348;2024-02-26T03:09:15;98185.47;;;6.75;87.61
80308;BME280;69616;43.522;1.348;2024-02-26T03:11:41;98199.47;;;6.72;87.75
80308;BME280;69616;43.522;1.348;2024-02-26T03:14:06;98194.38;;;6.68;87.26
80308;BME280;69616;43.522;1.348;2024-02-26T03:16:32;98187.50;;;6.64;87.59
80308;BME280;69616;43.522;1.348;2024-02-26T03:18:57;98180.41;;;6.69;88.43
80308;BME280;69616;43.522;1.348;2024-02-26T03:21:24;98176.66;;;6.81;87.88
80308;BME280;69616;43.522;1.348;2024-02-26T03:23:50;98181.59;;;6.93;87.93
80308;BME280;69616;43.522;1.348;2024-02-26T03:26:15;98175.28;;;7.02;87.90
80308;BME280;69616;43.522;1.348;2024-02-26T03:28:41;98175.94;;;7.12;87.84
80308;BME280;69616;43.522;1.348;2024-02-26T03:31:06;98187.94;;;7.21;87.30
80308;BME280;69616;43.522;1.348;2024-02-26T03:33:32;98193.00;;;7.28;86.56
80308;BME280;69616;43.522;1.348;2024-02-26T03:35:57;98191.06;;;7.35;87.31
80308;BME280;69616;43.522;1.348;2024-02-26T03:38:22;98191.78;;;7.42;86.65
80308;BME280;69616;43.522;1.348;2024-02-26T03:40:48;98191.66;;;7.48;86.38
80308;BME280;69616;43.522;1.348;2024-02-26T03:43:13;98189.72;;;7.55;86.60
80308;BME280;69616;43.522;1.348;2024-02-26T03:45:39;98175.59;;;7.60;86.42
80308;BME280;69616;43.522;1.348;2024-02-26T03:48:05;98170.19;;;7.67;86.40
80308;BME280;69616;43.522;1.348;2024-02-26T03:50:30;98173.53;;;7.73;86.20
80308;BME280;69616;43.522;1.348;2024-02-26T03:52:55;98171.63;;;7.79;86.11
80308;BME280;69616;43.522;1.348;2024-02-26T03:55:23;98168.78;;;7.88;86.11
80308;BME280;69616;43.522;1.348;2024-02-26T03:57:51;98169.53;;;7.93;85.49
80308;BME280;69616;43.522;1.348;2024-02-26T04:00:16;98177.13;;;8.02;85.38
80308;BME280;69616;43.522;1.348;2024-02-26T04:02:42;98189.19;;;8.10;85.06
80308;BME280;69616;43.522;1.348;2024-02-26T04:05:11;98190.59;;;8.22;84.15
80308;BME280;69616;43.522;1.348;2024-02-26T04:07:36;98188.50;;;8.35;84.00
80308;BME280;69616;43.522;1.348;2024-02-26T04:10:02;98181.25;;;8.43;83.50
80308;BME280;69616;43.522;1.348;2024-02-26T04:12:30;98171.28;;;8.56;82.79
80308;BME280;69616;43.522;1.348;2024-02-26T04:14:55;98183.38;;;8.61;82.69
80308;BME280;69616;43.522;1.348;2024-02-26T04:17:21;98176.31;;;8.64;82.09
80308;BME280;69616;43.522;1.348;2024-02-26T04:19:46;98177.22;;;8.63;82.19
80308;BME280;69616;43.522;1.348;2024-02-26T04:22:12;98185.84;;;8.66;81.53
80308;BME280;69616;43.522;1.348;2024-02-26T04:24:37;98156.03;;;8.69;81.58
80308;BME280;69616;43.522;1.348;2024-02-26T04:27:02;98177.94;;;8.68;81.64
80308;BME280;69616;43.522;1.348;2024-02-26T04:29:28;98159.56;;;8.68;81.55
80308;BME280;69616;43.522;1.348;2024-02-26T04:31:53;98166.44;;;8.72;81.06
80308;BME280;69616;43.522;1.348;2024-02-26T04:34:19;98162.81;;;8.76;80.84
80308;BME280;69616;43.522;1.348;2024-02-26T04:36:44;98163.59;;;8.78;80.42
80308;BME280;69616;43.522;1.348;2024-02-26T04:39:09;98166.22;;;8.78;80.54
80308;BME280;69616;43.522;1.348;2024-02-26T04:41:35;98174.09;;;8.78;80.32
80308;BME280;69616;43.522;1.348;2024-02-26T04:44:01;98173.16;;;8.81;80.40
80308;BME280;69616;43.522;1.348;2024-02-26T04:46:27;98174.94;;;8.80;80.46
80308;BME280;69616;43.522;1.348;2024-02-26T04:48:53;98181.97;;;8.78;81.01
80308;BME280;69616;43.522;1.348;2024-02-26T04:51:19;98185.47;;;8.79;80.72
80308;BME280;69616;43.522;1.348;2024-02-26T04:53:44;98175.88;;;8.78;80.72
80308;BME280;69616;43.522;1.348;2024-02-26T04:56:10;98178.44;;;8.79;80.63
80308;BME280;69616;43.522;1.348;2024-02-26T04:58:35;98172.31;;;8.80;80.17
80308;BME280;69616;43.522;1.348;2024-02-26T05:01:00;98176.66;;;8.81;80.44
80308;BME280;69616;43.522;1.348;2024-02-26T05:03:26;98173.19;;;8.79;80.57
80308;BME280;69616;43.522;1.348;2024-02-26T05:05:51;98175.00;;;8.77;80.58
80308;BME280;69616;43.522;1.348;2024-02-26T05:08:17;98178.66;;;8.73;80.69
80308;BME280;69616;43.522;1.348;2024-02-26T05:10:42;98177.00;;;8.70;80.70
80308;BME280;69616;43.522;1.348;2024-02-26T05:13:10;98173.50;;;8.70;80.41
80308;BME280;69616;43.522;1.348;2024-02-26T05:15:36;98179.44;;;8.75;79.36
80308;BME280;69616;43.522;1.348;2024-02-26T05:18:02;98181.97;;;8.78;79.81
80308;BME280;69616;43.522;1.348;2024-02-26T05:20:28;98184.59;;;8.78;79.68
80308;BME280;69616;43.522;1.348;2024-02-26T05:22:54;98188.91;;;8.81;79.47
80308;BME280;69616;43.522;1.348;2024-02-26T05:25:19;98191.50;;;8.82;79.44
80308;BME280;69616;43.522;1.348;2024-02-26T05:27:45;98190.72;;;8.79;79.62
80308;BME280;69616;43.522;1.348;2024-02-26T05:30:11;98195.09;;;8.78;79.61
80308;BME280;69616;43.522;1.348;2024-02-26T05:32:36;98188.22;;;8.74;79.79
80308;BME280;69616;43.522;1.348;2024-02-26T05:35:02;98177.00;;;8.70;79.75
80308;BME280;69616;43.522;1.348;2024-02-26T05:37:31;98186.59;;;8.70;79.95
80308;BME280;69616;43.522;1.348;2024-02-26T05:39:56;98190.19;;;8.67;79.85
80308;BME280;69616;43.522;1.348;2024-02-26T05:42:21;98185.91;;;8.65;79.74
80308;BME280;69616;43.522;1.348;2024-02-26T05:44:47;98189.44;;;8.64;79.95
80308;BME280;69616;43.522;1.348;2024-02-26T05:47:12;98191.25;;;8.61;79.62
80308;BME280;69616;43.522;1.348;2024-02-26T05:49:39;98195.63;;;8.61;79.47
80308;BME280;69616;43.522;1.348;2024-02-26T05:52:04;98206.09;;;8.61;79.40
80308;BME280;69616;43.522;1.348;2024-02-26T05:54:30;98206.16;;;8.59;79.41
80308;BME280;69616;43.522;1.348;2024-02-26T05:56:55;98203.56;;;8.58;79.32
80308;BME280;69616;43.522;1.348;2024-02-26T05:59:21;98195.72;;;8.58;78.89
80308;BME280;69616;43.522;1.348;2024-02-26T06:01:46;98194.88;;;8.57;78.74
80308;BME280;69616;43.522;1.348;2024-02-26T06:04:12;98195.81;;;8.55;78.53
80308;BME280;69616;43.522;1.348;2024-02-26T06:06:37;98194.88;;;8.57;78.28
80308;BME280;69616;43.522;1.348;2024-02-26T06:09:03;98201.88;;;8.55;78.15
80308;BME280;69616;43.522;1.348;2024-02-26T06:11:30;98209.81;;;8.54;77.90
80308;BME280;69616;43.522;1.348;2024-02-26T06:13:56;98209.91;;;8.51;78.10
80308;BME280;69616;43.522;1.348;2024-02-26T06:16:21;98208.28;;;8.45;78.09
80308;BME280;69616;43.522;1.348;2024-02-26T06:18:47;98209.28;;;8.41;78.59
80308;BME280;69616;43.522;1.348;2024-02-26T06:21:12;98205.94;;;8.36;78.57
80308;BME280;69616;43.522;1.348;2024-02-26T06:23:38;98206.06;;;8.31;78.77
80308;BME280;69616;43.522;1.348;2024-02-26T06:26:04;98214.03;;;8.26;78.77
80308;BME280;69616;43.522;1.348;2024-02-26T06:28:29;98217.72;;;8.21;78.96
80308;BME280;69616;43.522;1.348;2024-02-26T06:30:57;98223.09;;;8.14;79.19
80308;BME280;69616;43.522;1.348;2024-02-26T06:33:23;98237.19;;;8.12;79.02
80308;BME280;69616;43.522;1.348;2024-02-26T06:35:48;98248.69;;;8.04;79.10
80308;BME280;69616;43.522;1.348;2024-02-26T06:38:13;98246.22;;;8.00;79.22
80308;BME280;69616;43.522;1.348;2024-02-26T06:40:39;98248.88;;;7.98;79.34
80308;BME280;69616;43.522;1.348;2024-02-26T06:43:05;98247.16;;;7.97;79.19
80308;BME280;69616;43.522;1.348;2024-02-26T06:45:31;98248.09;;;7.95;78.98
80308;BME280;69616;43.522;1.348;2024-02-26T06:47:56;98251.50;;;7.98;78.74
80308;BME280;69616;43.522;1.348;2024-02-26T06:50:22;98255.75;;;8.02;78.41
80308;BME280;69616;43.522;1.348;2024-02-26T06:52:47;98265.22;;;8.08;78.21
80308;BME280;69616;43.522;1.348;2024-02-26T06:55:13;98261.59;;;8.14;77.42
80308;BME280;69616;43.522;1.348;2024-02-26T06:57:39;98267.66;;;8.16;77.61
80308;BME280;69616;43.522;1.348;2024-02-26T07:00:05;98265.75;;;8.21;77.14
80308;BME280;69616;43.522;1.348;2024-02-26T07:02:31;98255.16;;;8.26;77.03
80308;BME280;69616;43.522;1.348;2024-02-26T07:04:56;98262.06;;;8.28;76.46
80308;BME280;69616;43.522;1.348;2024-02-26T07:07:25;98266.41;;;8.29;76.47
80308;BME280;69616;43.522;1.348;2024-02-26T07:09:50;98276.00;;;8.30;76.52
80308;BME280;69616;43.522;1.348;2024-02-26T07:12:16;98280.38;;;8.30;76.51
80308;BME280;69616;43.522;1.348;2024-02-26T07:14:41;98286.47;;;8.30;76.21
80308;BME280;69616;43.522;1.348;2024-02-26T07:17:07;98284.69;;;8.32;76.35
80308;BME280;69616;43.522;1.348;2024-02-26T07:19:33;98282.09;;;8.32;76.14
80308;BME280;69616;43.522;1.348;2024-02-26T07:21:59;98281.19;;;8.33;76.04
80308;BME280;69616;43.522;1.348;2024-02-26T07:24:29;98292.47;;;8.36;75.84
80308;BME280;69616;43.522;1.348;2024-02-26T07:26:54;98298.47;;;8.41;76.00
80308;BME280;69616;43.522;1.348;2024-02-26T07:29:20;98294.94;;;8.42;75.45
80308;BME280;69616;43.522;1.348;2024-02-26T07:31:47;98301.88;;;8.44;75.55
80308;BME280;69616;43.522;1.348;2024-02-26T07:34:12;98306.97;;;8.49;75.23
80308;BME280;69616;43.522;1.348;2024-02-26T07:36:38;98311.22;;;8.55;75.28
80308;BME280;69616;43.522;1.348;2024-02-26T07:39:04;98300.56;;;8.61;74.51
80308;BME280;69616;43.522;1.348;2024-02-26T07:41:29;98305.69;;;8.66;74.71
80308;BME280;69616;43.522;1.348;2024-02-26T07:43:54;98299.44;;;8.70;74.38
80308;BME280;69616;43.522;1.348;2024-02-26T07:46:20;98292.34;;;8.73;74.16
80308;BME280;69616;43.522;1.348;2024-02-26T07:48:45;98289.56;;;8.78;74.46
80308;BME280;69616;43.522;1.348;2024-02-26T07:51:14;98297.28;;;8.84;74.09
80308;BME280;69616;43.522;1.348;2024-02-26T07:53:39;98294.50;;;8.90;73.72
80308;BME280;69616;43.522;1.348;2024-02-26T07:56:05;98298.63;;;8.99;74.05
80308;BME280;69616;43.522;1.348;2024-02-26T07:58:32;98298.09;;;9.16;73.54
80308;BME280;69616;43.522;1.348;2024-02-26T08:00:57;98300.06;;;9.38;72.31
80308;BME280;69616;43.522;1.348;2024-02-26T08:03:23;98296.06;;;9.55;72.21
80308;BME280;69616;43.522;1.348;2024-02-26T08:05:48;98284.03;;;9.74;71.18
80308;BME280;69616;43.522;1.348;2024-02-26T08:08:13;98290.59;;;9.89;71.11
80308;BME280;69616;43.522;1.348;2024-02-26T08:10:39;98280.41;;;10.05;69.72
80308;BME280;69616;43.522;1.348;2024-02-26T08:13:05;98290.50;;;10.18;70.30
80308;BME280;69616;43.522;1.348;2024-02-26T08:15:34;98288.41;;;10.28;69.17
80308;BME280;69616;43.522;1.348;2024-02-26T08:18:00;98283.59;;;10.41;69.28
80308;BME280;69616;43.522;1.348;2024-02-26T08:20:28;98289.41;;;10.51;69.15
80308;BME280;69616;43.522;1.348;2024-02-26T08:22:53;98295.19;;;10.60;69.05
80308;BME280;69616;43.522;1.348;2024-02-26T08:25:19;98278.25;;;10.68;68.51
80308;BME280;69616;43.522;1.348;2024-02-26T08:27:45;98266.59;;;10.75;68.12
80308;BME280;69616;43.522;1.348;2024-02-26T08:30:11;98263.66;;;10.83;67.04
80308;BME280;69616;43.522;1.348;2024-02-26T08:32:38;98259.25;;;10.83;66.13
80308;BME280;69616;43.522;1.348;2024-02-26T08:35:04;98255.59;;;10.87;65.99
80308;BME280;69616;43.522;1.348;2024-02-26T08:37:30;98257.97;;;10.94;65.42
80308;BME280;69616;43.522;1.348;2024-02-26T08:39:55;98260.41;;;11.00;65.17
80308;BME280;69616;43.522;1.348;2024-02-26T08:42:21;98262.00;;;11.04;65.16
80308;BME280;69616;43.522;1.348;2024-02-26T08:44:49;98258.03;;;11.16;63.14
80308;BME280;69616;43.522;1.348;2024-02-26T08:47:14;98265.88;;;11.17;62.79
80308;BME280;69616;43.522;1.348;2024-02-26T08:49:44;98274.34;;;11.26;63.28
80308;BME280;69616;43.522;1.348;2024-02-26T08:52:10;98268.88;;;11.30;62.84
80308;BME280;69616;43.522;1.348;2024-02-26T08:54:36;98262.50;;;11.36;62.94
80308;BME280;69616;43.522;1.348;2024-02-26T08:57:01;98265.69;;;11.44;63.04
80308;BME280;69616;43.522;1.348;2024-02-26T08:59:30;98269.63;;;11.56;61.53
80308;BME280;69616;43.522;1.348;2024-02-26T09:01:56;98268.38;;;11.65;61.51
80308;BME280;69616;43.522;1.348;2024-02-26T09:04:21;98281.34;;;11.71;61.66
80308;BME280;69616;43.522;1.348;2024-02-26T09:06:48;98280.06;;;11.80;61.65
80308;BME280;69616;43.522;1.348;2024-02-26T09:09:14;98276.16;;;11.90;60.50
80308;BME280;69616;43.522;1.348;2024-02-26T09:11:39;98289.25;;;11.92;60.37
80308;BME280;69616;43.522;1.348;2024-02-26T09:14:05;98282.59;;;12.05;60.46
80308;BME280;69616;43.522;1.348;2024-02-26T09:16:30;98286.75;;;12.11;60.68
80308;BME280;69616;43.522;1.348;2024-02-26T09:18:56;98286.31;;;12.22;59.13
80308;BME280;69616;43.522;1.348;2024-02-26T09:21:21;98289.75;;;12.24;59.05
80308;BME280;69616;43.522;1.348;2024-02-26T09:23:52;98286.03;;;12.28;58.22
80308;BME280;69616;43.522;1.348;2024-02-26T09:26:18;98288.41;;;12.34;58.78
80308;BME280;69616;43.522;1.348;2024-02-26T09:28:44;98295.25;;;12.39;58.68
80308;BME280;69616;43.522;1.348;2024-02-26T09:31:09;98286.88;;;12.49;58.52
80308;BME280;69616;43.522;1.348;2024-02-26T09:33:35;98295.97;;;12.63;58.62
80308;BME280;69616;43.522;1.348;2024-02-26T09:36:01;98288.66;;;12.70;59.45
80308;BME280;69616;43.522;1.348;2024-02-26T09:38:27;98295.88;;;12.85;57.76
80308;BME280;69616;43.522;1.348;2024-02-26T09:40:53;98294.44;;;12.97;57.85
80308;BME280;69616;43.522;1.348;2024-02-26T09:43:21;98290.81;;;13.00;57.54
80308;BME280;69616;43.522;1.348;2024-02-26T09:45:50;98285.09;;;13.09;58.03
80308;BME280;69616;43.522;1.348;2024-02-26T09:48:17;98290.63;;;13.24;57.36
80308;BME280;69616;43.522;1.348;2024-02-26T09:50:43;98289.75;;;13.42;57.19
80308;BME280;69616;43.522;1.348;2024-02-26T09:53:10;98284.25;;;13.47;57.15
80308;BME280;69616;43.522;1.348;2024-02-26T09:55:36;98286.22;;;13.61;56.85
80308;BME280;69616;43.522;1.348;2024-02-26T09:58:04;98284.88;;;13.71;56.00
80308;BME280;69616;43.522;1.348;2024-02-26T10:00:31;98279.97;;;13.81;55.41
80308;BME280;69616;43.522;1.348;2024-02-26T10:03:04;98283.97;;;13.90;54.51
80308;BME280;69616;43.522;1.348;2024-02-26T10:05:33;98288.94;;;13.96;53.75
80308;BME280;69616;43.522;1.348;2024-02-26T10:08:01;98283.13;;;14.07;53.22
80308;BME280;69616;43.522;1.348;2024-02-26T10:10:29;98280.53;;;14.05;53.14
80308;BME280;69616;43.522;1.348;2024-02-26T10:12:54;98273.31;;;14.09;54.07
80308;BME280;69616;43.522;1.348;2024-02-26T10:15:20;98283.50;;;14.17;53.94
80308;BME280;69616;43.522;1.348;2024-02-26T10:17:45;98270.72;;;14.25;53.50
80308;BME280;69616;43.522;1.348;2024-02-26T10:20:17;98271.97;;;14.35;53.03
80308;BME280;69616;43.522;1.348;2024-02-26T10:22:47;98264.66;;;14.41;52.44
80308;BME280;69616;43.522;1.348;2024-02-26T10:25:13;98263.78;;;14.40;52.82
80308;BME280;69616;43.522;1.348;2024-02-26T10:27:41;98268.50;;;14.51;53.34
80308;BME280;69616;43.522;1.348;2024-02-26T10:30:17;98270.69;;;14.60;52.40
80308;BME280;69616;43.522;1.348;2024-02-26T10:32:47;98256.94;;;14.70;52.42
80308;BME280;69616;43.522;1.348;2024-02-26T10:35:13;98253.06;;;14.77;51.47
80308;BME280;69616;43.522;1.348;2024-02-26T10:37:42;98260.16;;;14.76;50.98
80308;BME280;69616;43.522;1.348;2024-02-26T10:40:12;98248.31;;;14.66;50.21
80308;BME280;69616;43.522;1.348;2024-02-26T10:42:37;98240.47;;;14.64;49.76
80308;BME280;69616;43.522;1.348;2024-02-26T10:45:05;98242.34;;;14.62;50.37
80308;BME280;69616;43.522;1.348;2024-02-26T10:47:31;98239.69;;;14.62;50.31
80308;BME280;69616;43.522;1.348;2024-02-26T10:49:59;98244.03;;;14.63;49.83
80308;BME280;69616;43.522;1.348;2024-02-26T10:52:25;98242.50;;;14.59;50.22
80308;BME280;69616;43.522;1.348;2024-02-26T10:54:54;98242.16;;;14.66;49.50
80308;BME280;69616;43.522;1.348;2024-02-26T10:57:22;98247.47;;;14.66;50.05
80308;BME280;69616;43.522;1.348;2024-02-26T10:59:51;98243.72;;;14.70;50.49
80308;BME280;69616;43.522;1.348;2024-02-26T11:02:20;98244.44;;;14.73;49.95
80308;BME280;69616;43.522;1.348;2024-02-26T11:04:46;98242.91;;;14.85;50.02
80308;BME280;69616;43.522;1.348;2024-02-26T11:07:12;98246.16;;;14.90;50.00
80308;BME280;69616;43.522;1.348;2024-02-26T11:09:38;98235.06;;;15.00;49.55
80308;BME280;69616;43.522;1.348;2024-02-26T11:12:10;98255.25;;;15.18;49.51
80308;BME280;69616;43.522;1.348;2024-02-26T11:14:39;98238.81;;;15.28;49.03
80308;BME280;69616;43.522;1.348;2024-02-26T11:17:07;98247.38;;;15.33;49.27
80308;BME280;69616;43.522;1.348;2024-02-26T11:19:35;98244.13;;;15.44;48.57
80308;BME280;69616;43.522;1.348;2024-02-26T11:22:01;98230.94;;;15.42;48.66
80308;BME280;69616;43.522;1.348;2024-02-26T11:24:27;98231.13;;;15.39;48.59
80308;BME280;69616;43.522;1.348;2024-02-26T11:26:57;98231.88;;;15.41;48.97
80308;BME280;69616;43.522;1.348;2024-02-26T11:29:29;98228.19;;;15.60;47.75
80308;BME280;69616;43.522;1.348;2024-02-26T11:31:59;98228.41;;;15.71;47.93
80308;BME280;69616;43.522;1.348;2024-02-26T11:34:25;98219.44;;;15.74;48.99
80308;BME280;69616;43.522;1.348;2024-02-26T11:36:51;98219.41;;;15.90;48.73
80308;BME280;69616;43.522;1.348;2024-02-26T11:39:16;98227.75;;;15.98;49.65
80308;BME280;69616;43.522;1.348;2024-02-26T11:41:43;98219.41;;;15.90;48.98
80308;BME280;69616;43.522;1.348;2024-02-26T11:44:08;98226.19;;;15.79;49.08
80308;BME280;69616;43.522;1.348;2024-02-26T11:46:40;98218.53;;;15.59;48.02
80308;BME280;69616;43.522;1.348;2024-02-26T11:51:52;98222.84;;;15.13;48.54
80308;BME280;69616;43.522;1.348;2024-02-26T11:57:20;98205.72;;;15.03;49.37
80308;BME280;69616;43.522;1.348;2024-02-26T11:59:47;98198.78;;;15.32;48.53
80308;BME280;69616;43.522;1.348;2024-02-26T12:02:49;98195.50;;;15.59;47.74
80308;BME280;69616;43.522;1.348;2024-02-26T12:05:21;98185.84;;;15.89;46.70
80308;BME280;69616;43.522;1.348;2024-02-26T12:07:52;98186.28;;;16.12;46.89
80308;BME280;69616;43.522;1.348;2024-02-26T12:10:27;98183.06;;;16.06;45.37
80308;BME280;69616;43.522;1.348;2024-02-26T12:13:14;98177.75;;;16.06;46.06
80308;BME280;69616;43.522;1.348;2024-02-26T12:15:44;98168.75;;;16.24;46.05
80308;BME280;69616;43.522;1.348;2024-02-26T12:18:15;98160.31;;;16.31;45.96
80308;BME280;69616;43.522;1.348;2024-02-26T12:20:42;98149.47;;;16.49;45.71
80308;BME280;69616;43.522;1.348;2024-02-26T12:23:14;98142.44;;;16.62;45.27
80308;BME280;69616;43.522;1.348;2024-02-26T12:25:40;98146.88;;;16.76;45.28
80308;BME280;69616;43.522;1.348;2024-02-26T12:28:06;98134.81;;;16.85;44.74
80308;BME280;69616;43.522;1.348;2024-02-26T12:30:32;98140.59;;;16.92;45.05
80308;BME280;69616;43.522;1.348;2024-02-26T12:32:58;98140.22;;;16.98;44.47
80308;BME280;69616;43.522;1.348;2024-02-26T12:35:26;98129.84;;;16.93;43.25
80308;BME280;69616;43.522;1.348;2024-02-26T12:37:55;98138.84;;;16.63;43.06
80308;BME280;69616;43.522;1.348;2024-02-26T12:40:20;98138.28;;;16.44;43.65
80308;BME280;69616;43.522;1.348;2024-02-26T12:42:46;98136.66;;;16.56;44.49
80308;BME280;69616;43.522;1.348;2024-02-26T12:45:13;98135.41;;;16.76;45.00
80308;BME280;69616;43.522;1.348;2024-02-26T12:47:40;98129.84;;;16.93;44.81
80308;BME280;69616;43.522;1.348;2024-02-26T12:50:06;98121.41;;;17.01;44.72
80308;BME280;69616;43.522;1.348;2024-02-26T12:52:39;98115.78;;;17.06;44.36
80308;BME280;69616;43.522;1.348;2024-02-26T12:55:05;98117.09;;;17.13;44.51
80308;BME280;69616;43.522;1.348;2024-02-26T12:57:37;98112.31;;;17.18;43.62
80308;BME280;69616;43.522;1.348;2024-02-26T13:00:06;98106.16;;;17.18;43.45
80308;BME280;69616;43.522;1.348;2024-02-26T13:02:37;98105.41;;;17.16;43.65
80308;BME280;69616;43.522;1.348;2024-02-26T13:05:04;98110.81;;;17.14;43.30
80308;BME280;69616;43.522;1.348;2024-02-26T13:07:31;98100.03;;;17.03;42.82
80308;BME280;69616;43.522;1.348;2024-02-26T13:09:56;98119.59;;;17.02;43.74